sensor_id;sensor_type;location;lat;lon;timestamp;pressure;altitude;pressure_sealevel;temperature;humidity
4022;BME280;2025;48.260;16.432;2024-03-07T00:00:53;100158.91;;;5.21;82.04
4022;BME280;2025;48.260;16.432;2024-03-07T00:03:21;100142.69;;;5.18;82.14
4022;BME280;2025;48.260;16.432;2024-03-07T00:05:50;100146.13;;;5.18;82.10
4022;BME280;2025;48.260;16.432;2024-03-07T00:08:17;100151.22;;;5.20;82.08
4022;BME280;2025;48.260;16.432;2024-03-07T00:10:44;100155.97;;;5.15;82.68
4022;BME280;2025;48.260;16.432;2024-03-07T00:13:11;100147.31;;;5.14;81.91
4022;BME280;2025;48.260;16.432;2024-03-07T00:15:39;100154.06;;;5.17;82.04
4022;BME280;2025;48.260;16.432;2024-03-07T00:18:08;100146.50;;;5.14;82.57
4022;BME280;2025;48.260;16.432;2024-03-07T00:20:36;100154.31;;;5.14;82.33
4022;BME280;2025;48.260;16.432;2024-03-07T00:23:03;100154.06;;;5.17;82.50
4022;BME280;2025;48.260;16.432;2024-03-07T00:25:31;100150.75;;;5.15;81.91
4022;BME280;2025;48.260;16.432;2024-03-07T00:27:58;100142.69;;;5.18;81.73
4022;BME280;2025;48.260;16.432;2024-03-07T00:30:28;100144.69;;;5.14;81.81
4022;BME280;2025;48.260;16.432;2024-03-07T00:32:56;100146.75;;;5.11;82.32
4022;BME280;2025;48.260;16.432;2024-03-07T00:35:24;100147.31;;;5.14;81.58
4022;BME280;2025;48.260;16.432;2024-03-07T00:37:51;100147.56;;;5.11;81.93
4022;BME280;2025;48.260;16.432;2024-03-07T00:40:19;100145.91;;;5.10;82.35
4022;BME280;2025;48.260;16.432;2024-03-07T00:42:46;100137.13;;;5.11;81.97
4022;BME280;2025;48.260;16.432;2024-03-07T00:45:13;100133.69;;;5.11;82.18
4022;BME280;2025;48.260;16.432;2024-03-07T00:47:40;100130.00;;;5.13;81.92
4022;BME280;2025;48.260;16.432;2024-03-07T00:50:08;100130.94;;;5.12;81.94
4022;BME280;2025;48.260;16.432;2024-03-07T00:52:37;100129.28;;;5.11;81.63
4022;BME280;2025;48.260;16.432;2024-03-07T00:55:05;100126.53;;;5.13;82.04
4022;BME280;2025;48.260;16.432;2024-03-07T00:57:34;100127.38;;;5.13;81.88
4022;BME280;2025;48.260;16.432;2024-03-07T01:00:01;100128.22;;;5.14;81.88
4022;BME280;2025;48.260;16.432;2024-03-07T01:02:29;100126.44;;;5.14;81.66
4022;BME280;2025;48.260;16.432;2024-03-07T01:04:56;100120.94;;;5.17;81.44
4022;BME280;2025;48.260;16.432;2024-03-07T01:07:23;100131.53;;;5.16;82.26
4022;BME280;2025;48.260;16.432;2024-03-07T01:09:52;100127.94;;;5.17;81.44
4022;BME280;2025;48.260;16.432;2024-03-07T01:12:19;100128.91;;;5.16;81.63
4022;BME280;2025;48.260;16.432;2024-03-07T01:14:49;100127.00;;;5.18;80.87
4022;BME280;2025;48.260;16.432;2024-03-07T01:17:16;100130.44;;;5.18;81.43
4022;BME280;2025;48.260;16.432;2024-03-07T01:19:43;100126.16;;;5.17;81.07
4022;BME280;2025;48.260;16.432;2024-03-07T01:22:10;100124.41;;;5.18;81.10
4022;BME280;2025;48.260;16.432;2024-03-07T01:24:37;100121.66;;;5.19;81.06
4022;BME280;2025;48.260;16.432;2024-03-07T01:27:07;100120.94;;;5.17;81.96
4022;BME280;2025;48.260;16.432;2024-03-07T01:29:34;100118.22;;;5.19;81.32
4022;BME280;2025;48.260;16.432;2024-03-07T01:32:01;100115.59;;;5.19;80.67
4022;BME280;2025;48.260;16.432;2024-03-07T01:34:28;100123.44;;;5.19;80.69
4022;BME280;2025;48.260;16.432;2024-03-07T01:36:56;100121.53;;;5.21;80.45
4022;BME280;2025;48.260;16.432;2024-03-07T01:39:23;100120.72;;;5.20;80.44
4022;BME280;2025;48.260;16.432;2024-03-07T01:41:50;100115.34;;;5.22;80.42
4022;BME280;2025;48.260;16.432;2024-03-07T01:44:18;100122.13;;;5.24;80.12
4022;BME280;2025;48.260;16.432;2024-03-07T01:46:45;100117.84;;;5.23;80.83
4022;BME280;2025;48.260;16.432;2024-03-07T01:49:12;100126.50;;;5.24;80.08
4022;BME280;2025;48.260;16.432;2024-03-07T01:51:39;100120.34;;;5.25;79.98
4022;BME280;2025;48.260;16.432;2024-03-07T01:54:07;100112.50;;;5.25;79.91
4022;BME280;2025;48.260;16.432;2024-03-07T01:56:36;100115.50;;;5.20;81.50
4022;BME280;2025;48.260;16.432;2024-03-07T01:59:03;100111.78;;;5.23;79.96
4022;BME280;2025;48.260;16.432;2024-03-07T02:01:34;100116.91;;;5.24;79.85
4022;BME280;2025;48.260;16.432;2024-03-07T02:04:03;100105.75;;;5.22;79.71
4022;BME280;2025;48.260;16.432;2024-03-07T02:06:30;100109.31;;;5.21;79.93
4022;BME280;2025;48.260;16.432;2024-03-07T02:08:57;100107.50;;;5.22;80.20
4022;BME280;2025;48.260;16.432;2024-03-07T02:11:24;100105.88;;;5.21;80.75
4022;BME280;2025;48.260;16.432;2024-03-07T02:13:51;100114.66;;;5.20;81.20
4022;BME280;2025;48.260;16.432;2024-03-07T02:16:18;100099.81;;;5.20;81.52
4022;BME280;2025;48.260;16.432;2024-03-07T02:18:47;100110.25;;;5.20;81.22
4022;BME280;2025;48.260;16.432;2024-03-07T02:21:17;100108.03;;;5.16;81.74
4022;BME280;2025;48.260;16.432;2024-03-07T02:23:44;100107.59;;;5.11;82.20
4022;BME280;2025;48.260;16.432;2024-03-07T02:26:11;100099.03;;;5.09;82.16
4022;BME280;2025;48.260;16.432;2024-03-07T02:28:38;100099.53;;;5.02;82.44
4022;BME280;2025;48.260;16.432;2024-03-07T02:31:05;100098.72;;;5.02;82.07
4022;BME280;2025;48.260;16.432;2024-03-07T02:33:32;100100.63;;;5.00;82.49
4022;BME280;2025;48.260;16.432;2024-03-07T02:35:59;100098.81;;;5.00;81.40
4022;BME280;2025;48.260;16.432;2024-03-07T02:38:28;100099.09;;;4.97;82.05
4022;BME280;2025;48.260;16.432;2024-03-07T02:40:55;100093.88;;;4.97;81.98
4022;BME280;2025;48.260;16.432;2024-03-07T02:43:24;100100.72;;;4.98;81.31
4022;BME280;2025;48.260;16.432;2024-03-07T02:45:51;100089.34;;;4.99;81.77
4022;BME280;2025;48.260;16.432;2024-03-07T02:48:18;100098.28;;;4.97;82.26
4022;BME280;2025;48.260;16.432;2024-03-07T02:50:45;100091.50;;;4.94;81.87
4022;BME280;2025;48.260;16.432;2024-03-07T02:53:13;100086.78;;;4.88;83.11
4022;BME280;2025;48.260;16.432;2024-03-07T02:55:41;100100.41;;;4.92;82.22
4022;BME280;2025;48.260;16.432;2024-03-07T02:58:09;100094.63;;;4.88;82.80
4022;BME280;2025;48.260;16.432;2024-03-07T03:00:36;100097.22;;;4.88;82.29
4022;BME280;2025;48.260;16.432;2024-03-07T03:03:03;100096.25;;;4.89;82.45
4022;BME280;2025;48.260;16.432;2024-03-07T03:05:30;100101.38;;;4.91;81.76
4022;BME280;2025;48.260;16.432;2024-03-07T03:07:57;100104.22;;;4.88;81.77
4022;BME280;2025;48.260;16.432;2024-03-07T03:10:26;100095.44;;;4.89;81.82
4022;BME280;2025;48.260;16.432;2024-03-07T03:12:56;100099.13;;;4.86;81.71
4022;BME280;2025;48.260;16.432;2024-03-07T03:15:24;100097.47;;;4.85;82.12
4022;BME280;2025;48.260;16.432;2024-03-07T03:17:51;100101.72;;;4.86;81.69
4022;BME280;2025;48.260;16.432;2024-03-07T03:20:19;100099.22;;;4.84;81.88
4022;BME280;2025;48.260;16.432;2024-03-07T03:22:52;100091.41;;;4.84;82.33
4022;BME280;2025;48.260;16.432;2024-03-07T03:25:20;100103.63;;;4.84;81.55
4022;BME280;2025;48.260;16.432;2024-03-07T03:27:49;100099.94;;;4.86;80.92
4022;BME280;2025;48.260;16.432;2024-03-07T03:30:17;100106.94;;;4.86;80.92
4022;BME280;2025;48.260;16.432;2024-03-07T03:32:45;100109.56;;;4.86;81.17
4022;BME280;2025;48.260;16.432;2024-03-07T03:35:13;100113.81;;;4.87;81.31
4022;BME280;2025;48.260;16.432;2024-03-07T03:37:41;100110.28;;;4.88;81.22
4022;BME280;2025;48.260;16.432;2024-03-07T03:40:09;100107.66;;;4.88;80.95
4022;BME280;2025;48.260;16.432;2024-03-07T03:42:38;100111.81;;;4.91;80.28
4022;BME280;2025;48.260;16.432;2024-03-07T03:45:06;100104.09;;;4.89;80.54
4022;BME280;2025;48.260;16.432;2024-03-07T03:47:37;100112.78;;;4.90;80.48
4022;BME280;2025;48.260;16.432;2024-03-07T03:50:05;100110.84;;;4.92;80.75
4022;BME280;2025;48.260;16.432;2024-03-07T03:52:33;100105.06;;;4.88;80.80
4022;BME280;2025;48.260;16.432;2024-03-07T03:55:00;100106.00;;;4.87;80.87
4022;BME280;2025;48.260;16.432;2024-03-07T03:57:29;100115.38;;;4.90;80.55
4022;BME280;2025;48.260;16.432;2024-03-07T03:59:56;100115.13;;;4.93;80.05
4022;BME280;2025;48.260;16.432;2024-03-07T04:02:23;100111.69;;;4.92;80.68
4022;BME280;2025;48.260;16.432;2024-03-07T04:04:52;100110.00;;;4.91;79.98
4022;BME280;2025;48.260;16.432;2024-03-07T04:07:19;100112.88;;;4.88;80.52
4022;BME280;2025;48.260;16.432;2024-03-07T04:09:47;100112.16;;;4.86;80.81
4022;BME280;2025;48.260;16.432;2024-03-07T04:12:14;100106.25;;;4.84;81.63
4022;BME280;2025;48.260;16.432;2024-03-07T04:14:42;100102.69;;;4.85;80.86
4022;BME280;2025;48.260;16.432;2024-03-07T04:17:10;100107.78;;;4.86;81.02
4022;BME280;2025;48.260;16.432;2024-03-07T04:19:39;100108.84;;;4.84;80.96
4022;BME280;2025;48.260;16.432;2024-03-07T04:22:08;100110.38;;;4.86;80.96
4022;BME280;2025;48.260;16.432;2024-03-07T04:24:35;100108.75;;;4.85;80.75
4022;BME280;2025;48.260;16.432;2024-03-07T04:27:03;100102.00;;;4.83;81.22
4022;BME280;2025;48.260;16.432;2024-03-07T04:29:31;100102.00;;;4.83;81.27
4022;BME280;2025;48.260;16.432;2024-03-07T04:31:59;100107.06;;;4.84;81.08
4022;BME280;2025;48.260;16.432;2024-03-07T04:34:27;100109.13;;;4.81;81.22
4022;BME280;2025;48.260;16.432;2024-03-07T04:36:56;100112.44;;;4.83;81.51
4022;BME280;2025;48.260;16.432;2024-03-07T04:39:25;100111.34;;;4.85;80.97
4022;BME280;2025;48.260;16.432;2024-03-07T04:41:58;100109.44;;;4.88;80.88
4022;BME280;2025;48.260;16.432;2024-03-07T04:44:26;100117.28;;;4.88;81.02
4022;BME280;2025;48.260;16.432;2024-03-07T04:46:54;100115.88;;;4.83;80.79
4022;BME280;2025;48.260;16.432;2024-03-07T04:49:22;100116.78;;;4.82;80.76
4022;BME280;2025;48.260;16.432;2024-03-07T04:51:50;100119.56;;;4.81;81.54
4022;BME280;2025;48.260;16.432;2024-03-07T04:54:17;100121.19;;;4.82;81.47
4022;BME280;2025;48.260;16.432;2024-03-07T04:56:46;100119.41;;;4.82;81.70
4022;BME280;2025;48.260;16.432;2024-03-07T04:59:13;100122.88;;;4.83;81.43
4022;BME280;2025;48.260;16.432;2024-03-07T05:01:42;100118.72;;;4.80;81.49
4022;BME280;2025;48.260;16.432;2024-03-07T05:04:10;100126.56;;;4.80;81.51
4022;BME280;2025;48.260;16.432;2024-03-07T05:06:39;100127.75;;;4.76;82.18
4022;BME280;2025;48.260;16.432;2024-03-07T05:09:07;100130.25;;;4.78;81.03
4022;BME280;2025;48.260;16.432;2024-03-07T05:11:36;100125.03;;;4.78;80.46
4022;BME280;2025;48.260;16.432;2024-03-07T05:14:04;100124.16;;;4.77;80.39
4022;BME280;2025;48.260;16.432;2024-03-07T05:16:31;100138.19;;;4.76;79.58
4022;BME280;2025;48.260;16.432;2024-03-07T05:18:58;100136.88;;;4.71;79.17
4022;BME280;2025;48.260;16.432;2024-03-07T05:21:26;100140.56;;;4.68;78.76
4022;BME280;2025;48.260;16.432;2024-03-07T05:24:06;100138.56;;;4.60;77.81
4022;BME280;2025;48.260;16.432;2024-03-07T05:26:34;100140.72;;;4.55;79.46
4022;BME280;2025;48.260;16.432;2024-03-07T05:29:04;100144.38;;;4.64;78.98
4022;BME280;2025;48.260;16.432;2024-03-07T05:31:33;100137.84;;;4.58;79.70
4022;BME280;2025;48.260;16.432;2024-03-07T05:34:01;100141.28;;;4.59;78.81
4022;BME280;2025;48.260;16.432;2024-03-07T05:36:30;100144.03;;;4.57;78.74
4022;BME280;2025;48.260;16.432;2024-03-07T05:38:58;100140.56;;;4.57;79.24
4022;BME280;2025;48.260;16.432;2024-03-07T05:41:26;100135.50;;;4.55;78.95
4022;BME280;2025;48.260;16.432;2024-03-07T05:43:55;100147.00;;;4.53;79.88
4022;BME280;2025;48.260;16.432;2024-03-07T05:46:23;100142.25;;;4.47;81.00
4022;BME280;2025;48.260;16.432;2024-03-07T05:48:50;100139.53;;;4.48;80.70
4022;BME280;2025;48.260;16.432;2024-03-07T05:51:22;100156.97;;;4.48;80.94
4022;BME280;2025;48.260;16.432;2024-03-07T05:53:49;100152.69;;;4.47;81.18
4022;BME280;2025;48.260;16.432;2024-03-07T05:56:16;100154.47;;;4.46;81.17
4022;BME280;2025;48.260;16.432;2024-03-07T05:58:43;100146.31;;;4.39;81.38
4022;BME280;2025;48.260;16.432;2024-03-07T06:01:11;100150.44;;;4.42;80.37
4022;BME280;2025;48.260;16.432;2024-03-07T06:03:41;100148.81;;;4.41;81.07
4022;BME280;2025;48.260;16.432;2024-03-07T06:06:10;100151.63;;;4.38;80.84
4022;BME280;2025;48.260;16.432;2024-03-07T06:08:38;100157.69;;;4.38;80.39
4022;BME280;2025;48.260;16.432;2024-03-07T06:11:08;100155.66;;;4.42;80.34
4022;BME280;2025;48.260;16.432;2024-03-07T06:13:35;100154.72;;;4.43;79.83
4022;BME280;2025;48.260;16.432;2024-03-07T06:16:02;100166.69;;;4.46;79.81
4022;BME280;2025;48.260;16.432;2024-03-07T06:18:34;100167.41;;;4.48;79.65
4022;BME280;2025;48.260;16.432;2024-03-07T06:21:02;100160.63;;;4.45;80.59
4022;BME280;2025;48.260;16.432;2024-03-07T06:23:31;100158.50;;;4.50;79.40
4022;BME280;2025;48.260;16.432;2024-03-07T06:25:59;100164.56;;;4.51;78.71
4022;BME280;2025;48.260;16.432;2024-03-07T06:28:29;100159.91;;;4.54;78.42
4022;BME280;2025;48.260;16.432;2024-03-07T06:30:56;100166.44;;;4.60;78.25
4022;BME280;2025;48.260;16.432;2024-03-07T06:33:23;100163.13;;;4.58;77.84
4022;BME280;2025;48.260;16.432;2024-03-07T06:35:51;100165.25;;;4.53;79.06
4022;BME280;2025;48.260;16.432;2024-03-07T06:38:20;100167.97;;;4.51;77.74
4022;BME280;2025;48.260;16.432;2024-03-07T06:40:47;100173.66;;;4.45;78.38
4022;BME280;2025;48.260;16.432;2024-03-07T06:43:14;100173.19;;;4.40;78.30
4022;BME280;2025;48.260;16.432;2024-03-07T06:45:42;100179.84;;;4.44;77.58
4022;BME280;2025;48.260;16.432;2024-03-07T06:48:09;100181.28;;;4.37;78.41
4022;BME280;2025;48.260;16.432;2024-03-07T06:50:36;100182.00;;;4.39;77.44
4022;BME280;2025;48.260;16.432;2024-03-07T06:53:04;100181.03;;;4.40;76.94
4022;BME280;2025;48.260;16.432;2024-03-07T06:55:33;100185.31;;;4.41;77.03
4022;BME280;2025;48.260;16.432;2024-03-07T06:58:01;100187.19;;;4.39;77.17
4022;BME280;2025;48.260;16.432;2024-03-07T07:00:30;100189.09;;;4.37;76.78
4022;BME280;2025;48.260;16.432;2024-03-07T07:03:01;100190.28;;;4.44;77.18
4022;BME280;2025;48.260;16.432;2024-03-07T07:05:30;100190.28;;;4.44;77.66
4022;BME280;2025;48.260;16.432;2024-03-07T07:07:59;100198.09;;;4.44;77.97
4022;BME280;2025;48.260;16.432;2024-03-07T07:10:26;100182.56;;;4.42;78.38
4022;BME280;2025;48.260;16.432;2024-03-07T07:12:55;100191.25;;;4.43;77.65
4022;BME280;2025;48.260;16.432;2024-03-07T07:15:22;100194.06;;;4.40;78.18
4022;BME280;2025;48.260;16.432;2024-03-07T07:17:49;100189.81;;;4.50;78.22
4022;BME280;2025;48.260;16.432;2024-03-07T07:20:17;100193.47;;;4.59;78.18
4022;BME280;2025;48.260;16.432;2024-03-07T07:22:45;100187.31;;;4.60;78.52
4022;BME280;2025;48.260;16.432;2024-03-07T07:25:13;100196.44;;;4.65;79.24
4022;BME280;2025;48.260;16.432;2024-03-07T07:27:43;100188.38;;;4.69;78.88
4022;BME280;2025;48.260;16.432;2024-03-07T07:30:13;100193.59;;;4.69;78.48
4022;BME280;2025;48.260;16.432;2024-03-07T07:32:41;100193.59;;;4.69;78.56
4022;BME280;2025;48.260;16.432;2024-03-07T07:35:09;100188.13;;;4.60;78.15
4022;BME280;2025;48.260;16.432;2024-03-07T07:37:38;100195.84;;;4.62;78.71
4022;BME280;2025;48.260;16.432;2024-03-07T07:40:06;100189.47;;;4.55;78.34
4022;BME280;2025;48.260;16.432;2024-03-07T07:42:35;100199.03;;;4.65;78.11
4022;BME280;2025;48.260;16.432;2024-03-07T07:45:06;100196.31;;;4.67;79.20
4022;BME280;2025;48.260;16.432;2024-03-07T07:47:38;100193.69;;;4.67;80.29
4022;BME280;2025;48.260;16.432;2024-03-07T07:50:07;100206.50;;;4.70;79.32
4022;BME280;2025;48.260;16.432;2024-03-07T07:52:42;100196.66;;;4.74;80.19
4022;BME280;2025;48.260;16.432;2024-03-07T07:55:09;100195.31;;;4.91;79.10
4022;BME280;2025;48.260;16.432;2024-03-07T07:57:41;100196.25;;;5.01;76.08
4022;BME280;2025;48.260;16.432;2024-03-07T08:00:11;100196.00;;;5.04;74.51
4022;BME280;2025;48.260;16.432;2024-03-07T08:02:51;100192.56;;;5.03;72.64
4022;BME280;2025;48.260;16.432;2024-03-07T08:05:18;100196.81;;;5.16;70.75
4022;BME280;2025;48.260;16.432;2024-03-07T08:07:46;100195.47;;;5.21;70.01
4022;BME280;2025;48.260;16.432;2024-03-07T08:10:14;100197.47;;;5.29;68.85
4022;BME280;2025;48.260;16.432;2024-03-07T08:12:41;100190.44;;;5.41;70.26
4022;BME280;2025;48.260;16.432;2024-03-07T08:15:11;100191.63;;;5.37;71.08
4022;BME280;2025;48.260;16.432;2024-03-07T08:17:41;100192.38;;;5.60;69.16
4022;BME280;2025;48.260;16.432;2024-03-07T08:20:12;100191.06;;;5.54;67.10
4022;BME280;2025;48.260;16.432;2024-03-07T08:22:40;100189.09;;;5.46;68.40
4022;BME280;2025;48.260;16.432;2024-03-07T08:25:09;100187.75;;;5.52;68.79
4022;BME280;2025;48.260;16.432;2024-03-07T08:27:38;100193.72;;;5.43;69.70
4022;BME280;2025;48.260;16.432;2024-03-07T08:30:07;100198.38;;;5.39;70.41
4022;BME280;2025;48.260;16.432;2024-03-07T08:32:38;100198.75;;;5.67;69.94
4022;BME280;2025;48.260;16.432;2024-03-07T08:35:06;100190.91;;;5.88;68.17
4022;BME280;2025;48.260;16.432;2024-03-07T08:37:37;100198.56;;;6.01;69.83
4022;BME280;2025;48.260;16.432;2024-03-07T08:40:05;100196.13;;;6.09;68.31
4022;BME280;2025;48.260;16.432;2024-03-07T08:42:35;100193.84;;;6.16;66.69
4022;BME280;2025;48.260;16.432;2024-03-07T08:45:03;100189.00;;;6.11;69.44
4022;BME280;2025;48.260;16.432;2024-03-07T08:47:31;100189.41;;;6.37;66.71
4022;BME280;2025;48.260;16.432;2024-03-07T08:49:58;100192.47;;;6.21;65.65
4022;BME280;2025;48.260;16.432;2024-03-07T08:52:26;100199.28;;;6.33;65.22
4022;BME280;2025;48.260;16.432;2024-03-07T08:54:55;100189.44;;;6.57;65.78
4022;BME280;2025;48.260;16.432;2024-03-07T08:57:22;100185.94;;;6.77;64.62
4022;BME280;2025;48.260;16.432;2024-03-07T08:59:49;100185.00;;;6.88;64.23
4022;BME280;2025;48.260;16.432;2024-03-07T09:02:16;100190.59;;;6.73;65.40
4022;BME280;2025;48.260;16.432;2024-03-07T09:04:44;100176.97;;;6.80;65.64
4022;BME280;2025;48.260;16.432;2024-03-07T09:07:11;100189.56;;;6.95;65.98
4022;BME280;2025;48.260;16.432;2024-03-07T09:09:40;100187.06;;;6.94;63.38
4022;BME280;2025;48.260;16.432;2024-03-07T09:12:10;100176.19;;;7.08;63.66
4022;BME280;2025;48.260;16.432;2024-03-07T09:14:37;100186.00;;;7.06;62.26
4022;BME280;2025;48.260;16.432;2024-03-07T09:17:05;100189.44;;;7.16;65.25
4022;BME280;2025;48.260;16.432;2024-03-07T09:19:32;100181.59;;;6.97;61.21
4022;BME280;2025;48.260;16.432;2024-03-07T09:22:00;100186.81;;;7.07;61.85
4022;BME280;2025;48.260;16.432;2024-03-07T09:24:30;100179.91;;;6.96;61.01
4022;BME280;2025;48.260;16.432;2024-03-07T09:26:57;100171.09;;;6.97;64.42
4022;BME280;2025;48.260;16.432;2024-03-07T09:29:26;100176.59;;;6.84;63.03
4022;BME280;2025;48.260;16.432;2024-03-07T09:31:54;100183.72;;;6.32;63.09
4022;BME280;2025;48.260;16.432;2024-03-07T09:34:23;100185.41;;;6.12;64.62
4022;BME280;2025;48.260;16.432;2024-03-07T09:36:51;100185.41;;;5.91;66.64
4022;BME280;2025;48.260;16.432;2024-03-07T09:39:18;100187.88;;;6.04;65.93
4022;BME280;2025;48.260;16.432;2024-03-07T09:41:45;100191.81;;;5.98;66.07
4022;BME280;2025;48.260;16.432;2024-03-07T09:44:14;100199.53;;;6.00;68.01
4022;BME280;2025;48.260;16.432;2024-03-07T09:46:50;100199.75;;;5.97;65.78
4022;BME280;2025;48.260;16.432;2024-03-07T09:49:18;100195.63;;;5.94;66.47
4022;BME280;2025;48.260;16.432;2024-03-07T09:51:47;100193.38;;;5.89;68.46
4022;BME280;2025;48.260;16.432;2024-03-07T09:54:14;100196.38;;;5.85;66.05
4022;BME280;2025;48.260;16.432;2024-03-07T09:56:41;100193.75;;;5.85;66.09
4022;BME280;2025;48.260;16.432;2024-03-07T09:59:12;100196.25;;;6.07;68.90
4022;BME280;2025;48.260;16.432;2024-03-07T10:01:40;100196.63;;;6.24;67.49
4022;BME280;2025;48.260;16.432;2024-03-07T10:04:13;100200.00;;;6.45;66.19
4022;BME280;2025;48.260;16.432;2024-03-07T10:06:41;100200.75;;;6.57;65.88
4022;BME280;2025;48.260;16.432;2024-03-07T10:09:08;100196.00;;;6.82;65.98
4022;BME280;2025;48.260;16.432;2024-03-07T10:11:38;100194.69;;;7.07;65.67
4022;BME280;2025;48.260;16.432;2024-03-07T10:14:07;100204.50;;;7.53;66.54
4022;BME280;2025;48.260;16.432;2024-03-07T10:16:34;100189.72;;;7.72;62.70
4022;BME280;2025;48.260;16.432;2024-03-07T10:19:04;100197.88;;;7.49;62.17
4022;BME280;2025;48.260;16.432;2024-03-07T10:21:33;100192.91;;;7.27;65.50
4022;BME280;2025;48.260;16.432;2024-03-07T10:24:05;100194.28;;;7.11;67.50
4022;BME280;2025;48.260;16.432;2024-03-07T10:26:34;100189.19;;;7.39;63.98
4022;BME280;2025;48.260;16.432;2024-03-07T10:29:04;100185.41;;;8.37;66.33
4022;BME280;2025;48.260;16.432;2024-03-07T10:31:34;100192.19;;;7.93;60.73
4022;BME280;2025;48.260;16.432;2024-03-07T10:34:04;100194.34;;;8.07;59.84
4022;BME280;2025;48.260;16.432;2024-03-07T10:36:35;100191.69;;;9.10;58.69
4022;BME280;2025;48.260;16.432;2024-03-07T10:39:02;100189.28;;;9.16;66.05
4022;BME280;2025;48.260;16.432;2024-03-07T10:41:44;100194.00;;;8.67;58.35
4022;BME280;2025;48.260;16.432;2024-03-07T10:44:19;100193.72;;;7.56;61.72
4022;BME280;2025;48.260;16.432;2024-03-07T10:46:52;100193.69;;;6.88;63.90
4022;BME280;2025;48.260;16.432;2024-03-07T10:49:20;100197.00;;;6.50;66.43
4022;BME280;2025;48.260;16.432;2024-03-07T10:52:00;100199.31;;;6.74;67.38
4022;BME280;2025;48.260;16.432;2024-03-07T10:54:34;100198.81;;;7.09;67.27
4022;BME280;2025;48.260;16.432;2024-03-07T10:57:14;100196.50;;;7.65;64.92
4022;BME280;2025;48.260;16.432;2024-03-07T10:59:49;100210.13;;;7.68;64.92
4022;BME280;2025;48.260;16.432;2024-03-07T11:02:26;100206.56;;;7.30;65.78
4022;BME280;2025;48.260;16.432;2024-03-07T11:04:55;100198.53;;;6.93;65.42
4022;BME280;2025;48.260;16.432;2024-03-07T11:07:24;100207.53;;;6.60;66.71
4022;BME280;2025;48.260;16.432;2024-03-07T11:09:53;100200.91;;;6.56;69.29
4022;BME280;2025;48.260;16.432;2024-03-07T11:12:24;100206.06;;;6.15;69.26
4022;BME280;2025;48.260;16.432;2024-03-07T11:14:53;100201.09;;;5.91;69.91
4022;BME280;2025;48.260;16.432;2024-03-07T11:17:28;100191.47;;;5.70;71.51
4022;BME280;2025;48.260;16.432;2024-03-07T11:20:18;100196.06;;;5.57;73.03
4022;BME280;2025;48.260;16.432;2024-03-07T11:22:47;100197.72;;;5.58;71.33
4022;BME280;2025;48.260;16.432;2024-03-07T11:25:17;100202.72;;;5.50;72.88
4022;BME280;2025;48.260;16.432;2024-03-07T11:27:55;100201.94;;;5.38;72.80
4022;BME280;2025;48.260;16.432;2024-03-07T11:30:22;100206.28;;;5.49;73.15
4022;BME280;2025;48.260;16.432;2024-03-07T11:32:50;100197.78;;;5.36;72.70
4022;BME280;2025;48.260;16.432;2024-03-07T11:35:20;100203.78;;;5.47;73.61
4022;BME280;2025;48.260;16.432;2024-03-07T11:37:58;100196.41;;;5.32;72.93
4022;BME280;2025;48.260;16.432;2024-03-07T11:40:44;100192.41;;;5.48;72.39
4022;BME280;2025;48.260;16.432;2024-03-07T11:43:14;100195.88;;;5.38;73.59
4022;BME280;2025;48.260;16.432;2024-03-07T11:45:41;100189.53;;;5.52;72.47
4022;BME280;2025;48.260;16.432;2024-03-07T11:48:12;100195.34;;;5.55;72.60
4022;BME280;2025;48.260;16.432;2024-03-07T11:50:41;100189.38;;;5.64;72.29
4022;BME280;2025;48.260;16.432;2024-03-07T11:53:10;100185.50;;;5.47;73.13
4022;BME280;2025;48.260;16.432;2024-03-07T11:55:37;100176.38;;;5.74;72.57
4022;BME280;2025;48.260;16.432;2024-03-07T11:58:12;100178.78;;;5.66;71.42
4022;BME280;2025;48.260;16.432;2024-03-07T12:00:40;100179.16;;;5.61;71.84
4022;BME280;2025;48.260;16.432;2024-03-07T12:03:11;100172.66;;;5.77;72.04
4022;BME280;2025;48.260;16.432;2024-03-07T12:05:40;100172.66;;;5.77;71.90
4022;BME280;2025;48.260;16.432;2024-03-07T12:08:11;100170.81;;;5.67;72.27
4022;BME280;2025;48.260;16.432;2024-03-07T12:10:39;100165.53;;;5.58;71.64
4022;BME280;2025;48.260;16.432;2024-03-07T12:13:09;100175.53;;;5.53;72.72
4022;BME280;2025;48.260;16.432;2024-03-07T12:15:38;100168.13;;;5.37;72.82
4022;BME280;2025;48.260;16.432;2024-03-07T12:18:06;100169.84;;;5.47;74.84
4022;BME280;2025;48.260;16.432;2024-03-07T12:20:41;100168.63;;;5.52;73.33
4022;BME280;2025;48.260;16.432;2024-03-07T12:23:13;100163.53;;;5.71;72.77
4022;BME280;2025;48.260;16.432;2024-03-07T12:25:45;100155.81;;;5.90;70.85
4022;BME280;2025;48.260;16.432;2024-03-07T12:28:13;100171.31;;;5.82;72.62
4022;BME280;2025;48.260;16.432;2024-03-07T12:30:53;100171.97;;;5.96;71.91
4022;BME280;2025;48.260;16.432;2024-03-07T12:33:23;100160.91;;;5.71;70.98
4022;BME280;2025;48.260;16.432;2024-03-07T12:35:52;100169.41;;;5.63;71.55
4022;BME280;2025;48.260;16.432;2024-03-07T12:38:27;100165.38;;;5.59;72.34
4022;BME280;2025;48.260;16.432;2024-03-07T12:41:04;100162.50;;;5.95;70.07
4022;BME280;2025;48.260;16.432;2024-03-07T12:43:32;100161.09;;;6.21;68.67
4022;BME280;2025;48.260;16.432;2024-03-07T12:46:00;100155.78;;;6.02;67.86
4022;BME280;2025;48.260;16.432;2024-03-07T12:48:27;100148.66;;;6.04;68.09
4022;BME280;2025;48.260;16.432;2024-03-07T12:50:54;100151.63;;;6.30;66.66
4022;BME280;2025;48.260;16.432;2024-03-07T12:53:22;100143.06;;;6.68;67.57
4022;BME280;2025;48.260;16.432;2024-03-07T12:55:53;100153.69;;;6.67;65.74
4022;BME280;2025;48.260;16.432;2024-03-07T12:58:20;100162.00;;;6.41;66.16
4022;BME280;2025;48.260;16.432;2024-03-07T13:00:51;100152.28;;;6.22;67.70
4022;BME280;2025;48.260;16.432;2024-03-07T13:03:18;100147.84;;;6.13;66.07
4022;BME280;2025;48.260;16.432;2024-03-07T13:05:46;100153.09;;;5.92;66.63
4022;BME280;2025;48.260;16.432;2024-03-07T13:08:14;100149.84;;;5.79;68.20
4022;BME280;2025;48.260;16.432;2024-03-07T13:10:41;100155.91;;;5.79;68.93
4022;BME280;2025;48.260;16.432;2024-03-07T13:13:11;100156.09;;;5.66;68.38
4022;BME280;2025;48.260;16.432;2024-03-07T13:15:38;100151.06;;;5.54;69.44
4022;BME280;2025;48.260;16.432;2024-03-07T13:18:06;100148.31;;;5.55;69.00